createdAt,value
2022-09-16T00:00:32.020Z,11.10
2022-09-16T00:03:01.367Z,11.10
2022-09-16T00:05:29.506Z,11.00
2022-09-16T00:07:57.671Z,11.00
2022-09-16T00:10:25.649Z,11.00
2022-09-16T00:12:53.637Z,11.00
2022-09-16T00:15:21.700Z,11.00
2022-09-16T00:17:49.807Z,11.00
2022-09-16T00:20:19.177Z,11.00
2022-09-16T00:22:47.128Z,11.10
2022-09-16T00:25:15.201Z,11.00
2022-09-16T00:27:43.149Z,11.00
2022-09-16T00:30:11.948Z,11.00
2022-09-16T00:32:40.037Z,11.00
2022-09-16T00:35:08.771Z,11.00
2022-09-16T00:37:38.088Z,10.90
2022-09-16T00:40:06.994Z,11.00
2022-09-16T00:42:39.058Z,10.90
2022-09-16T00:45:07.974Z,11.00
2022-09-16T00:47:37.462Z,11.00
2022-09-16T00:50:08.164Z,11.00
2022-09-16T00:52:37.472Z,11.00
2022-09-16T00:55:07.959Z,10.90
2022-09-16T00:57:35.983Z,11.00
2022-09-16T01:00:05.058Z,11.00
2022-09-16T01:02:33.001Z,10.90
2022-09-16T01:05:01.915Z,10.90
2022-09-16T01:07:32.690Z,11.00
2022-09-16T01:10:02.043Z,10.90
2022-09-16T01:12:30.676Z,10.90
2022-09-16T01:14:58.700Z,10.90
2022-09-16T01:17:31.472Z,10.90
2022-09-16T01:20:12.116Z,10.90
2022-09-16T01:22:47.696Z,10.90
2022-09-16T01:25:22.221Z,10.90
2022-09-16T01:28:02.193Z,10.90
2022-09-16T01:30:54.546Z,10.90
2022-09-16T01:33:28.705Z,10.80
2022-09-16T01:36:09.821Z,10.80
2022-09-16T01:38:47.068Z,10.80
2022-09-16T01:41:18.049Z,10.80
2022-09-16T01:43:50.900Z,10.80
2022-09-16T01:46:22.863Z,10.80
2022-09-16T01:48:54.570Z,10.80
2022-09-16T01:51:24.722Z,10.70
2022-09-16T01:53:55.116Z,10.70
2022-09-16T01:56:25.373Z,10.70
2022-09-16T01:58:54.459Z,10.70
2022-09-16T02:01:26.293Z,10.60
2022-09-16T02:03:57.012Z,10.70
2022-09-16T02:06:25.103Z,10.70
2022-09-16T02:08:54.706Z,10.60
2022-09-16T02:11:22.776Z,10.60
2022-09-16T02:13:53.509Z,10.50
2022-09-16T02:16:26.944Z,10.40
2022-09-16T02:18:56.318Z,10.50
2022-09-16T02:21:25.399Z,10.60
2022-09-16T02:23:55.138Z,10.60
2022-09-16T02:26:25.535Z,10.50
2022-09-16T02:28:53.812Z,10.60
2022-09-16T02:31:24.876Z,10.50
2022-09-16T02:33:54.831Z,10.50
2022-09-16T02:36:23.633Z,10.40
2022-09-16T02:38:52.891Z,10.50
2022-09-16T02:41:20.910Z,10.50
2022-09-16T02:43:48.908Z,10.40
2022-09-16T02:46:20.366Z,10.40
2022-09-16T02:48:55.691Z,10.40
2022-09-16T02:51:28.659Z,10.40
2022-09-16T02:53:58.201Z,10.40
2022-09-16T02:56:28.004Z,10.50
2022-09-16T02:58:56.055Z,10.40
2022-09-16T03:01:24.466Z,10.30
2022-09-16T03:03:55.424Z,10.30
2022-09-16T03:06:25.068Z,10.40
2022-09-16T03:08:54.025Z,10.40
2022-09-16T03:11:39.040Z,10.40
2022-09-16T03:14:24.936Z,10.40
2022-09-16T03:16:56.867Z,10.40
2022-09-16T03:19:29.886Z,10.40
2022-09-16T03:22:01.921Z,10.40
2022-09-16T03:24:32.581Z,10.40
2022-09-16T03:27:02.488Z,10.40
2022-09-16T03:29:33.858Z,10.40
2022-09-16T03:32:04.399Z,10.40
2022-09-16T03:34:35.374Z,10.30
2022-09-16T03:37:04.586Z,10.30
2022-09-16T03:39:32.939Z,10.30
2022-09-16T03:42:02.050Z,10.30
2022-09-16T03:44:33.953Z,10.30
2022-09-16T03:47:01.981Z,10.30
2022-09-16T03:49:30.487Z,10.30
2022-09-16T03:51:59.899Z,10.40
2022-09-16T03:54:27.902Z,10.40
2022-09-16T03:56:55.907Z,10.50
2022-09-16T03:59:23.920Z,10.40
2022-09-16T04:01:51.992Z,10.50
2022-09-16T04:04:20.056Z,10.40
2022-09-16T04:06:48.043Z,10.50
2022-09-16T04:09:17.481Z,10.50
2022-09-16T04:11:45.481Z,10.50
2022-09-16T04:14:13.495Z,10.40
2022-09-16T04:16:45.042Z,10.40
2022-09-16T04:19:14.100Z,10.40
2022-09-16T04:21:42.247Z,10.40
2022-09-16T04:24:13.233Z,10.40
2022-09-16T04:26:42.951Z,10.40
2022-09-16T04:29:11.072Z,10.40
2022-09-16T04:31:39.077Z,10.40
2022-09-16T04:34:07.102Z,10.50
2022-09-16T04:36:35.104Z,10.50
2022-09-16T04:39:03.143Z,10.50
2022-09-16T04:41:31.132Z,10.50
2022-09-16T04:44:00.823Z,10.50
2022-09-16T04:46:30.024Z,10.50
2022-09-16T04:48:58.220Z,10.50
2022-09-16T04:51:27.397Z,10.50
2022-09-16T04:53:55.878Z,10.40
2022-09-16T04:56:24.753Z,10.50
2022-09-16T04:58:54.007Z,10.50
2022-09-16T05:01:24.339Z,10.50
2022-09-16T05:03:53.434Z,10.50
2022-09-16T05:06:22.222Z,10.50
2022-09-16T05:08:50.347Z,10.60
2022-09-16T05:11:19.434Z,10.60
2022-09-16T05:13:47.556Z,10.70
2022-09-16T05:16:16.720Z,10.60
2022-09-16T05:18:47.123Z,10.60
2022-09-16T05:21:17.804Z,10.50
2022-09-16T05:23:47.125Z,10.50
2022-09-16T05:26:16.514Z,10.60
2022-09-16T05:28:44.531Z,10.70
2022-09-16T05:31:13.320Z,10.60
2022-09-16T05:33:41.449Z,10.70
2022-09-16T05:36:12.160Z,10.80
2022-09-16T05:38:40.174Z,10.80
2022-09-16T05:41:08.180Z,10.90
2022-09-16T05:43:36.251Z,11.00
2022-09-16T05:46:04.547Z,11.00
2022-09-16T05:48:32.941Z,11.00
2022-09-16T05:51:02.594Z,11.10
2022-09-16T05:53:32.652Z,11.00
2022-09-16T05:56:01.558Z,11.00
2022-09-16T05:58:30.311Z,11.10
2022-09-16T06:01:01.460Z,11.10
2022-09-16T06:03:29.824Z,11.20
2022-09-16T06:06:01.750Z,11.20
2022-09-16T06:08:31.605Z,11.30
2022-09-16T06:11:01.761Z,11.30
2022-09-16T06:13:29.781Z,11.50
2022-09-16T06:15:58.042Z,11.50
2022-09-16T06:18:26.967Z,11.70
2022-09-16T06:20:54.973Z,11.80
2022-09-16T06:23:23.118Z,11.80
2022-09-16T06:26:00.441Z,11.90
2022-09-16T06:28:28.512Z,11.90
2022-09-16T06:31:03.262Z,12.00
2022-09-16T06:33:31.280Z,11.90
2022-09-16T06:35:59.268Z,11.80
2022-09-16T06:38:27.276Z,12.20
2022-09-16T06:40:58.772Z,12.40
2022-09-16T06:43:26.792Z,12.30
2022-09-16T06:45:59.522Z,12.50
2022-09-16T06:48:28.051Z,12.60
2022-09-16T06:51:00.371Z,12.40
2022-09-16T06:53:28.559Z,12.50
2022-09-16T06:56:00.932Z,12.50
2022-09-16T06:58:29.772Z,12.50
2022-09-16T07:00:57.843Z,12.50
2022-09-16T07:03:25.864Z,12.50
2022-09-16T07:05:58.096Z,12.80
2022-09-16T07:08:26.113Z,13.20
2022-09-16T07:11:03.080Z,13.40
2022-09-16T07:13:31.160Z,13.30
2022-09-16T07:16:15.970Z,13.70
2022-09-16T07:18:44.168Z,13.70
2022-09-16T07:21:15.800Z,13.90
2022-09-16T07:23:44.082Z,14.20
2022-09-16T07:26:15.014Z,14.60
2022-09-16T07:28:43.816Z,15.00
2022-09-16T07:31:13.222Z,15.20
2022-09-16T07:33:42.032Z,15.20
2022-09-16T07:36:11.113Z,15.20
2022-09-16T07:38:39.121Z,15.00
2022-09-16T07:41:07.480Z,14.90
2022-09-16T07:43:36.827Z,14.80
2022-09-16T07:46:05.162Z,15.20
2022-09-16T07:48:35.139Z,15.40
2022-09-16T07:51:04.980Z,15.20
2022-09-16T07:53:33.213Z,14.90
2022-09-16T07:56:02.843Z,15.20
2022-09-16T07:58:30.886Z,15.30
2022-09-16T08:01:04.259Z,15.60
2022-09-16T08:03:32.965Z,15.50
2022-09-16T08:06:02.045Z,15.60
2022-09-16T08:08:30.341Z,16.00
2022-09-16T08:10:58.655Z,16.30
2022-09-16T08:13:26.900Z,16.20
2022-09-16T08:15:55.079Z,16.60
2022-09-16T08:18:24.428Z,16.80
2022-09-16T08:20:52.429Z,17.30
2022-09-16T08:23:20.449Z,16.80
2022-09-16T08:25:48.451Z,17.20
2022-09-16T08:28:17.079Z,17.40
2022-09-16T08:30:45.187Z,17.60
2022-09-16T08:33:13.217Z,18.30
2022-09-16T08:35:42.531Z,18.70
2022-09-16T08:38:10.609Z,18.10
2022-09-16T08:40:38.596Z,18.30
2022-09-16T08:43:11.129Z,17.80
2022-09-16T08:45:43.942Z,17.40
2022-09-16T08:48:27.972Z,17.70
2022-09-16T08:50:58.566Z,17.90
2022-09-16T08:53:34.078Z,18.00
2022-09-16T08:56:03.682Z,17.30
2022-09-16T08:58:35.210Z,17.30
2022-09-16T09:01:06.249Z,17.30
2022-09-16T09:03:37.923Z,17.30
2022-09-16T09:06:13.048Z,16.70
2022-09-16T09:08:44.525Z,17.00
2022-09-16T09:11:16.117Z,17.00
2022-09-16T09:14:12.364Z,16.80
2022-09-16T09:16:43.830Z,17.40
2022-09-16T09:19:23.385Z,16.90
2022-09-16T09:21:57.081Z,16.80
2022-09-16T09:24:34.181Z,17.30
2022-09-16T09:27:05.927Z,18.00
2022-09-16T09:29:47.624Z,17.80
2022-09-16T09:32:21.404Z,18.50
2022-09-16T09:35:01.786Z,18.80
2022-09-16T09:37:42.094Z,18.80
2022-09-16T09:40:12.637Z,18.70
2022-09-16T09:42:42.490Z,19.00
2022-09-16T09:45:17.914Z,18.90
2022-09-16T09:47:48.200Z,18.50
2022-09-16T09:50:18.881Z,18.60
2022-09-16T09:52:51.030Z,18.40
2022-09-16T09:55:19.909Z,18.90
2022-09-16T09:58:05.267Z,18.80
2022-09-16T10:00:33.307Z,18.20
2022-09-16T10:03:06.876Z,18.20
2022-09-16T10:05:34.985Z,18.40
2022-09-16T10:08:10.845Z,19.00
2022-09-16T10:10:46.681Z,19.30
2022-09-16T10:13:14.774Z,19.30
2022-09-16T10:15:43.292Z,20.00
2022-09-16T10:18:14.396Z,19.50
2022-09-16T10:20:44.844Z,19.10
2022-09-16T10:23:15.608Z,19.10
2022-09-16T10:25:43.752Z,19.70
2022-09-16T10:28:23.652Z,20.60
2022-09-16T10:30:52.798Z,20.50
2022-09-16T10:33:24.612Z,20.00
2022-09-16T10:35:55.242Z,20.20
2022-09-16T10:38:25.537Z,20.50
2022-09-16T10:40:54.391Z,20.30
2022-09-16T10:43:22.665Z,19.80
2022-09-16T10:45:51.695Z,19.90
2022-09-16T10:48:20.577Z,20.10
2022-09-16T10:50:58.404Z,20.10
2022-09-16T10:53:32.615Z,19.80
2022-09-16T10:56:01.662Z,19.30
2022-09-16T10:58:29.706Z,19.30
2022-09-16T11:01:15.918Z,18.90
2022-09-16T11:04:19.498Z,19.20
2022-09-16T11:06:58.362Z,19.80
2022-09-16T11:09:30.625Z,19.70
2022-09-16T11:12:13.090Z,19.80
2022-09-16T11:14:45.720Z,19.90
2022-09-16T11:17:31.042Z,20.30
2022-09-16T11:20:13.750Z,20.10
2022-09-16T11:22:44.720Z,19.40
2022-09-16T11:25:38.112Z,19.60
2022-09-16T11:28:18.485Z,19.40
2022-09-16T11:30:49.797Z,18.90
2022-09-16T11:33:22.984Z,19.00
2022-09-16T11:36:27.713Z,18.60
2022-09-16T11:39:03.244Z,19.00
2022-09-16T11:41:34.930Z,18.70
2022-09-16T11:44:23.905Z,19.30
2022-09-16T11:46:58.082Z,19.00
2022-09-16T11:49:42.554Z,19.60
2022-09-16T11:52:23.285Z,19.00
2022-09-16T11:55:02.064Z,18.30
2022-09-16T11:57:33.589Z,18.50
2022-09-16T12:00:04.707Z,18.70
2022-09-16T12:02:42.151Z,18.70
2022-09-16T12:05:14.923Z,18.50
2022-09-16T12:07:44.985Z,18.40
2022-09-16T12:10:15.513Z,18.30
2022-09-16T12:12:46.247Z,18.60
2022-09-16T12:15:18.026Z,18.90
2022-09-16T12:17:58.100Z,19.40
2022-09-16T12:20:27.621Z,19.30
2022-09-16T12:22:57.141Z,18.50
2022-09-16T12:25:28.292Z,18.30
2022-09-16T12:28:01.808Z,17.60
2022-09-16T12:30:31.568Z,17.90
2022-09-16T12:33:02.442Z,17.50
2022-09-16T12:35:39.144Z,17.50
2022-09-16T12:38:07.728Z,17.70
2022-09-16T12:40:40.608Z,17.80
2022-09-16T12:43:30.108Z,18.30
2022-09-16T12:46:19.652Z,17.90
2022-09-16T12:49:03.990Z,18.20
2022-09-16T12:51:40.482Z,18.60
2022-09-16T12:54:26.583Z,18.90
2022-09-16T12:57:07.016Z,19.20
2022-09-16T12:59:55.025Z,18.60
2022-09-16T13:02:24.403Z,18.90
2022-09-16T13:04:53.986Z,18.50
2022-09-16T13:07:24.285Z,18.50
2022-09-16T13:10:01.560Z,18.60
2022-09-16T13:12:41.006Z,18.60
2022-09-16T13:15:25.278Z,19.10
2022-09-16T13:17:53.838Z,19.20
2022-09-16T13:20:23.854Z,19.10
2022-09-16T13:22:58.751Z,18.60
2022-09-16T13:25:28.643Z,17.20
2022-09-16T13:27:58.614Z,16.50
2022-09-16T13:30:45.915Z,15.60
2022-09-16T13:33:29.072Z,15.30
2022-09-16T13:36:20.029Z,15.40
2022-09-16T13:38:49.797Z,15.30
2022-09-16T13:41:30.970Z,15.30
2022-09-16T13:43:59.342Z,14.90
2022-09-16T13:46:31.393Z,14.80
2022-09-16T13:49:13.849Z,14.20
2022-09-16T13:51:44.596Z,14.50
2022-09-16T13:54:29.472Z,14.50
2022-09-16T13:57:14.729Z,15.00
2022-09-16T13:59:56.639Z,15.00
2022-09-16T14:02:34.632Z,15.10
2022-09-16T14:05:29.928Z,15.30
2022-09-16T14:07:59.418Z,15.40
2022-09-16T14:10:32.155Z,15.70
2022-09-16T14:13:03.149Z,15.70
2022-09-16T14:15:31.362Z,15.60
2022-09-16T14:18:01.928Z,15.40
2022-09-16T14:20:30.016Z,15.40
2022-09-16T14:23:05.327Z,15.60
2022-09-16T14:25:35.035Z,15.60
2022-09-16T14:28:10.521Z,15.70
2022-09-16T14:30:39.148Z,15.80
2022-09-16T14:33:08.829Z,16.00
2022-09-16T14:35:36.826Z,16.10
2022-09-16T14:38:08.405Z,15.90
2022-09-16T14:40:39.868Z,15.80
2022-09-16T14:43:09.122Z,15.90
2022-09-16T14:45:37.543Z,15.80
2022-09-16T14:48:09.898Z,15.60
2022-09-16T14:50:39.000Z,15.80
2022-09-16T14:53:09.169Z,15.70
2022-09-16T14:55:40.283Z,15.60
2022-09-16T14:58:10.113Z,15.90
2022-09-16T15:00:41.045Z,16.00
2022-09-16T15:03:13.347Z,16.00
2022-09-16T15:05:42.250Z,15.90
2022-09-16T15:08:14.986Z,15.90
2022-09-16T15:12:46.584Z,15.90
2022-09-16T15:13:38.601Z,15.80
2022-09-16T15:16:12.039Z,15.90
2022-09-16T15:18:43.058Z,15.90
2022-09-16T15:21:12.556Z,15.90
2022-09-16T15:23:41.741Z,15.70
2022-09-16T15:26:15.535Z,15.70
2022-09-16T15:29:08.671Z,15.70
2022-09-16T15:31:37.389Z,15.70
2022-09-16T15:34:22.133Z,15.70
2022-09-16T15:36:53.972Z,15.70
2022-09-16T15:39:26.568Z,15.60
2022-09-16T15:42:06.768Z,15.40
2022-09-16T15:44:37.339Z,15.30
2022-09-16T15:47:05.889Z,15.40
2022-09-16T15:49:36.795Z,15.40
2022-09-16T15:52:07.211Z,15.40
2022-09-16T15:54:38.242Z,15.40
2022-09-16T15:57:07.516Z,15.50
2022-09-16T15:59:37.042Z,15.40
2022-09-16T16:02:07.639Z,15.40
2022-09-16T16:04:37.037Z,15.30
2022-09-16T16:07:06.016Z,15.10
2022-09-16T16:09:39.452Z,15.00
2022-09-16T16:12:10.058Z,15.00
2022-09-16T16:14:38.645Z,14.90
2022-09-16T16:17:13.131Z,14.90
2022-09-16T16:19:43.308Z,15.00
2022-09-16T16:22:11.923Z,15.00
2022-09-16T16:24:40.426Z,15.00
2022-09-16T16:27:08.869Z,14.80
2022-09-16T16:29:38.915Z,14.80
2022-09-16T16:32:09.363Z,14.60
2022-09-16T16:34:38.171Z,14.70
2022-09-16T16:37:07.712Z,14.70
2022-09-16T16:39:35.819Z,14.60
2022-09-16T16:42:05.538Z,14.60
2022-09-16T16:44:33.676Z,14.50
2022-09-16T16:47:01.884Z,14.50
2022-09-16T16:49:29.883Z,14.40
2022-09-16T16:51:58.058Z,14.40
2022-09-16T16:54:27.658Z,14.30
2022-09-16T16:56:55.777Z,14.30
2022-09-16T16:59:23.885Z,14.30
2022-09-16T17:01:52.623Z,14.30
2022-09-16T17:04:20.660Z,14.30
2022-09-16T17:06:57.896Z,14.20
2022-09-16T17:09:38.359Z,14.20
2022-09-16T17:12:07.022Z,14.30
2022-09-16T17:14:35.038Z,14.30
2022-09-16T17:17:03.164Z,14.10
2022-09-16T17:19:32.387Z,14.20
2022-09-16T17:22:00.365Z,14.20
2022-09-16T17:24:28.482Z,14.10
2022-09-16T17:26:57.814Z,14.10
2022-09-16T17:29:25.816Z,14.10
2022-09-16T17:31:55.605Z,14.00
2022-09-16T17:34:23.885Z,14.00
2022-09-16T17:36:51.865Z,13.90
2022-09-16T17:39:20.757Z,13.90
2022-09-16T17:41:49.667Z,13.90
2022-09-16T17:44:19.400Z,13.90
2022-09-16T17:46:47.712Z,13.90
2022-09-16T17:49:17.043Z,13.90
2022-09-16T17:51:45.041Z,13.90
2022-09-16T17:54:13.046Z,13.90
2022-09-16T17:56:42.505Z,13.80
2022-09-16T17:59:10.910Z,13.70
2022-09-16T18:01:40.378Z,13.80
2022-09-16T18:04:08.429Z,13.80
2022-09-16T18:06:43.236Z,13.80
2022-09-16T18:09:11.599Z,13.80
2022-09-16T18:11:39.926Z,13.80
2022-09-16T18:14:09.019Z,13.70
2022-09-16T18:16:37.079Z,13.60
2022-09-16T18:19:06.694Z,13.60
2022-09-16T18:21:34.769Z,13.60
2022-09-16T18:24:03.640Z,13.50
2022-09-16T18:26:31.757Z,13.50
2022-09-16T18:29:16.647Z,13.60
2022-09-16T18:31:45.689Z,13.50
2022-09-16T18:34:15.199Z,13.60
2022-09-16T18:36:43.298Z,13.50
2022-09-16T18:39:13.580Z,13.40
2022-09-16T18:41:42.375Z,13.50
2022-09-16T18:44:13.653Z,13.50
2022-09-16T18:46:41.737Z,13.40
2022-09-16T18:49:11.074Z,13.30
2022-09-16T18:51:41.310Z,13.20
2022-09-16T18:54:13.984Z,13.10
2022-09-16T18:56:42.042Z,13.20
2022-09-16T18:59:22.451Z,13.00
2022-09-16T19:01:51.502Z,13.10
2022-09-16T19:04:20.311Z,13.10
2022-09-16T19:06:50.537Z,13.10
2022-09-16T19:09:19.462Z,13.10
2022-09-16T19:11:47.710Z,13.20
2022-09-16T19:14:15.981Z,13.20
2022-09-16T19:16:44.981Z,13.10
2022-09-16T19:19:13.850Z,13.10
2022-09-16T19:21:42.145Z,12.90
2022-09-16T19:24:14.572Z,12.90
2022-09-16T19:26:42.977Z,12.80
2022-09-16T19:29:11.088Z,12.80
2022-09-16T19:31:39.894Z,12.60
2022-09-16T19:34:08.010Z,12.70
2022-09-16T19:36:36.735Z,12.40
2022-09-16T19:39:04.804Z,12.50
2022-09-16T19:41:35.220Z,12.30
2022-09-16T19:44:04.536Z,12.30
2022-09-16T19:46:35.904Z,12.10
2022-09-16T19:49:04.038Z,12.00
2022-09-16T19:51:33.268Z,12.00
2022-09-16T19:54:01.550Z,12.00
2022-09-16T19:56:30.543Z,12.00
2022-09-16T19:59:01.413Z,11.90
2022-09-16T20:01:31.330Z,11.90
2022-09-16T20:03:59.729Z,11.90
2022-09-16T20:06:30.837Z,12.00
2022-09-16T20:08:59.866Z,12.00
2022-09-16T20:11:28.545Z,11.90
2022-09-16T20:13:57.907Z,11.90
2022-09-16T20:16:28.360Z,11.90
2022-09-16T20:18:56.444Z,11.90
2022-09-16T20:21:25.433Z,11.90
2022-09-16T20:23:53.629Z,11.90
2022-09-16T20:26:21.779Z,12.00
2022-09-16T20:28:51.011Z,11.90
2022-09-16T20:31:20.584Z,11.80
2022-09-16T20:33:50.098Z,11.80
2022-09-16T20:36:20.458Z,11.70
2022-09-16T20:38:48.463Z,11.80
2022-09-16T20:41:17.597Z,11.80
2022-09-16T20:43:45.964Z,11.80
2022-09-16T20:46:14.878Z,11.80
2022-09-16T20:48:43.117Z,11.80
2022-09-16T20:51:13.512Z,11.90
2022-09-16T20:53:41.806Z,11.80
2022-09-16T20:56:11.613Z,11.80
2022-09-16T20:58:39.659Z,11.90
2022-09-16T21:01:08.692Z,11.90
2022-09-16T21:03:36.903Z,11.90
2022-09-16T21:06:05.240Z,11.80
2022-09-16T21:08:35.204Z,11.80
2022-09-16T21:11:05.790Z,11.80
2022-09-16T21:13:33.803Z,11.90
2022-09-16T21:16:02.014Z,11.90
2022-09-16T21:18:30.565Z,11.90
2022-09-16T21:21:02.464Z,11.90
2022-09-16T21:23:30.760Z,11.70
2022-09-16T21:26:04.579Z,11.70
2022-09-16T21:28:33.363Z,11.70
2022-09-16T21:31:02.686Z,11.70
2022-09-16T21:33:31.152Z,11.80
2022-09-16T21:35:59.190Z,11.80
2022-09-16T21:38:28.943Z,11.70
2022-09-16T21:40:57.888Z,11.80
2022-09-16T21:43:28.874Z,11.90
2022-09-16T21:45:57.768Z,11.90
2022-09-16T21:48:27.437Z,11.90
2022-09-16T21:50:55.557Z,12.00
2022-09-16T21:53:23.610Z,12.00
2022-09-16T21:55:51.625Z,12.10
2022-09-16T21:58:19.586Z,12.10
2022-09-16T22:00:48.989Z,12.10
2022-09-16T22:03:17.043Z,12.10
2022-09-16T22:05:45.057Z,12.00
2022-09-16T22:08:13.121Z,12.00
2022-09-16T22:10:41.137Z,12.00
2022-09-16T22:13:09.123Z,11.90
2022-09-16T22:15:37.152Z,12.00
2022-09-16T22:18:06.697Z,12.00
2022-09-16T22:20:34.745Z,12.00
2022-09-16T22:23:02.716Z,12.00
2022-09-16T22:25:30.717Z,12.00
2022-09-16T22:27:58.689Z,12.00
2022-09-16T22:30:26.729Z,11.90
2022-09-16T22:32:54.718Z,11.90
2022-09-16T22:35:24.072Z,11.90
2022-09-16T22:37:52.161Z,11.90
2022-09-16T22:40:20.283Z,11.90
2022-09-16T22:42:48.304Z,11.90
2022-09-16T22:45:16.510Z,12.00
2022-09-16T22:47:44.492Z,11.90
2022-09-16T22:50:12.595Z,12.00
2022-09-16T22:52:41.924Z,11.90
2022-09-16T22:55:10.624Z,11.90
2022-09-16T22:57:38.613Z,11.90
2022-09-16T23:00:07.510Z,11.90
2022-09-16T23:02:35.501Z,11.90
2022-09-16T23:05:03.550Z,11.90
2022-09-16T23:07:32.222Z,11.90
2022-09-16T23:10:01.900Z,11.90
2022-09-16T23:12:32.504Z,11.80
2022-09-16T23:15:00.504Z,11.80
2022-09-16T23:17:28.475Z,11.80
2022-09-16T23:19:56.486Z,11.80
2022-09-16T23:22:24.516Z,11.80
2022-09-16T23:24:52.529Z,11.90
2022-09-16T23:27:21.856Z,11.90
2022-09-16T23:29:49.851Z,11.90
2022-09-16T23:32:17.837Z,12.00
2022-09-16T23:34:45.847Z,11.90
2022-09-16T23:37:13.853Z,11.90
2022-09-16T23:39:41.864Z,11.90
2022-09-16T23:42:12.075Z,11.90
2022-09-16T23:44:41.623Z,11.90
2022-09-16T23:47:09.624Z,11.90
2022-09-16T23:49:37.635Z,11.90
2022-09-16T23:52:05.646Z,12.00
2022-09-16T23:54:33.658Z,11.90
2022-09-16T23:57:01.658Z,11.90
2022-09-16T23:59:29.655Z,11.90
